createdAt,value
2023-03-25T00:02:53.787Z,9.80
2023-03-25T00:08:16.976Z,12.10
2023-03-25T00:13:42.196Z,11.38
2023-03-25T00:19:04.167Z,12.00
2023-03-25T00:24:32.885Z,10.43
2023-03-25T00:30:02.262Z,10.30
2023-03-25T00:35:31.226Z,11.27
2023-03-25T00:40:54.508Z,10.68
2023-03-25T00:46:24.004Z,10.15
2023-03-25T00:51:52.899Z,10.10
2023-03-25T00:57:22.832Z,11.38
2023-03-25T01:02:53.800Z,10.60
2023-03-25T01:08:19.345Z,11.05
2023-03-25T01:13:46.195Z,10.88
2023-03-25T01:19:10.785Z,12.20
2023-03-25T01:30:07.280Z,10.95
2023-03-25T01:35:37.069Z,11.65
2023-03-25T01:40:59.323Z,10.95
2023-03-25T01:46:28.166Z,9.93
2023-03-25T01:51:54.512Z,11.10
2023-03-25T01:57:21.713Z,10.98
2023-03-25T02:02:50.924Z,11.30
2023-03-25T02:08:21.844Z,10.82
2023-03-25T02:13:49.759Z,10.45
2023-03-25T02:19:32.987Z,10.35
2023-03-25T02:25:07.507Z,10.48
2023-03-25T02:30:48.483Z,11.15
2023-03-25T02:36:31.712Z,12.27
2023-03-25T02:42:02.664Z,13.50
2023-03-25T02:47:28.004Z,12.55
2023-03-25T02:52:52.541Z,12.05
2023-03-25T02:58:18.760Z,13.25
2023-03-25T03:03:41.697Z,14.43
2023-03-25T03:09:11.837Z,14.63
2023-03-25T03:14:42.923Z,15.50
2023-03-25T03:20:09.727Z,14.73
2023-03-25T03:25:41.473Z,14.18
2023-03-25T03:31:15.496Z,14.57
2023-03-25T03:36:59.268Z,15.13
2023-03-25T03:42:24.469Z,14.95
2023-03-25T03:47:53.616Z,14.38
2023-03-25T03:53:23.750Z,13.98
2023-03-25T03:58:54.500Z,14.30
2023-03-25T04:04:21.297Z,13.45
2023-03-25T04:09:54.970Z,14.60
2023-03-25T04:15:18.242Z,14.25
2023-03-25T04:20:44.764Z,13.13
2023-03-25T04:26:07.940Z,11.95
2023-03-25T04:31:32.434Z,12.15
2023-03-25T04:36:58.524Z,12.07
2023-03-25T04:42:21.364Z,11.98
2023-03-25T04:47:45.222Z,12.25
2023-03-25T04:53:13.303Z,12.27
2023-03-25T04:58:37.002Z,11.50
2023-03-25T05:04:05.890Z,11.38
2023-03-25T05:09:30.505Z,10.65
2023-03-25T05:14:53.582Z,12.13
2023-03-25T05:20:17.830Z,11.07
2023-03-25T05:25:42.700Z,12.38
2023-03-25T05:31:08.391Z,13.00
2023-03-25T05:36:31.691Z,14.57
2023-03-25T05:42:02.707Z,13.93
2023-03-25T05:47:26.496Z,13.60
2023-03-25T05:52:51.864Z,14.88
2023-03-25T05:58:20.615Z,13.95
2023-03-25T06:03:44.707Z,13.02
2023-03-25T06:09:08.139Z,14.27
2023-03-25T06:14:32.538Z,13.30
2023-03-25T06:20:06.499Z,12.40
2023-03-25T06:25:31.129Z,10.68
2023-03-25T06:30:54.893Z,8.75
2023-03-25T06:36:19.244Z,9.82
2023-03-25T06:41:42.196Z,7.80
2023-03-25T06:47:11.809Z,6.90
2023-03-25T06:52:44.977Z,6.03
2023-03-25T06:58:07.278Z,5.88
2023-03-25T07:03:30.942Z,5.80
2023-03-25T07:08:53.507Z,5.40
2023-03-25T07:14:16.086Z,6.18
2023-03-25T07:19:44.168Z,6.05
2023-03-25T07:25:08.806Z,5.10
2023-03-25T07:30:32.007Z,5.20
2023-03-25T07:36:01.222Z,4.55
2023-03-25T07:41:25.078Z,4.82
2023-03-25T07:47:05.697Z,4.75
2023-03-25T07:52:36.181Z,4.70
2023-03-25T07:58:05.090Z,4.93
2023-03-25T08:03:35.166Z,4.85
2023-03-25T08:09:05.630Z,6.35
2023-03-25T08:14:34.156Z,6.03
2023-03-25T08:19:58.127Z,8.02
2023-03-25T08:25:29.437Z,8.43
2023-03-25T08:30:58.287Z,8.70
2023-03-25T08:36:27.955Z,9.73
2023-03-25T08:41:59.361Z,8.70
2023-03-25T08:47:23.854Z,8.80
2023-03-25T08:52:53.565Z,9.15
2023-03-25T08:58:23.325Z,9.50
2023-03-25T09:03:49.832Z,9.13
2023-03-25T09:09:18.051Z,9.07
2023-03-25T09:14:48.535Z,8.93
2023-03-25T09:20:13.468Z,8.70
2023-03-25T09:25:43.048Z,7.68
2023-03-25T09:31:09.533Z,8.98
2023-03-25T09:36:38.275Z,9.23
2023-03-25T09:42:09.591Z,9.80
2023-03-25T09:47:38.414Z,8.13
2023-03-25T09:53:12.092Z,7.93
2023-03-25T09:58:37.712Z,7.00
2023-03-25T10:04:11.361Z,6.50
2023-03-25T10:09:45.518Z,7.57
2023-03-25T10:15:18.759Z,8.18
2023-03-25T10:20:55.785Z,8.60
2023-03-25T10:26:24.470Z,7.53
2023-03-25T10:31:52.628Z,8.10
2023-03-25T10:37:28.939Z,7.10
2023-03-25T10:43:07.068Z,7.88
2023-03-25T10:48:32.387Z,8.20
2023-03-25T10:54:02.521Z,9.18
2023-03-25T10:59:34.818Z,7.40
2023-03-25T11:04:59.991Z,8.07
2023-03-25T11:10:32.372Z,7.47
2023-03-25T11:16:02.829Z,7.85
2023-03-25T11:21:33.613Z,7.82
2023-03-25T11:27:04.168Z,9.05
2023-03-25T11:32:34.227Z,7.60
2023-03-25T11:38:09.684Z,7.38
2023-03-25T11:43:36.496Z,8.07
2023-03-25T11:49:08.900Z,8.50
2023-03-25T11:54:38.396Z,7.55
2023-03-25T12:00:09.251Z,8.18
2023-03-25T12:05:34.647Z,16.38
2023-03-25T12:11:06.923Z,7.65
2023-03-25T12:16:42.290Z,8.30
2023-03-25T12:22:16.036Z,8.95
2023-03-25T12:27:45.035Z,9.40
2023-03-25T12:33:22.174Z,8.32
2023-03-25T12:38:57.734Z,7.72
2023-03-25T12:44:35.962Z,7.57
2023-03-25T12:50:25.522Z,7.40
2023-03-25T12:56:01.284Z,7.47
2023-03-25T13:01:26.216Z,8.30
2023-03-25T13:06:54.843Z,7.68
2023-03-25T13:12:23.943Z,7.38
2023-03-25T13:17:51.714Z,7.47
2023-03-25T13:23:22.553Z,8.45
2023-03-25T13:28:56.208Z,7.70
2023-03-25T13:34:27.457Z,8.10
2023-03-25T13:40:12.309Z,7.32
2023-03-25T13:45:45.905Z,8.70
2023-03-25T13:51:10.092Z,8.90
2023-03-25T13:56:50.778Z,7.88
2023-03-25T14:02:31.681Z,7.57
2023-03-25T14:08:06.079Z,8.25
2023-03-25T14:13:38.685Z,7.95
2023-03-25T14:19:05.337Z,9.43
2023-03-25T14:24:35.122Z,8.35
2023-03-25T14:30:05.925Z,9.18
2023-03-25T14:35:58.505Z,7.93
2023-03-25T14:41:45.826Z,8.77
2023-03-25T14:47:30.305Z,8.93
2023-03-25T14:52:59.814Z,8.68
2023-03-25T14:58:28.848Z,8.55
2023-03-25T15:04:09.704Z,9.93
2023-03-25T15:09:45.955Z,9.63
2023-03-25T15:15:26.662Z,8.85
2023-03-25T15:20:51.943Z,9.25
2023-03-25T15:26:19.907Z,10.80
2023-03-25T15:31:55.723Z,10.57
2023-03-25T15:37:46.551Z,9.35
2023-03-25T15:43:32.335Z,10.63
2023-03-25T15:49:09.412Z,9.93
2023-03-25T15:54:36.523Z,10.27
2023-03-25T16:00:05.314Z,11.25
2023-03-25T16:05:34.617Z,10.38
2023-03-25T16:11:16.080Z,9.95
2023-03-25T16:16:46.434Z,9.77
2023-03-25T16:22:17.200Z,10.50
2023-03-25T16:27:44.297Z,10.90
2023-03-25T16:33:16.806Z,11.13
2023-03-25T16:38:45.429Z,10.70
2023-03-25T16:44:13.675Z,12.23
2023-03-25T16:49:38.356Z,11.80
2023-03-25T16:55:14.912Z,12.15
2023-03-25T17:00:43.723Z,11.45
2023-03-25T17:06:17.145Z,12.32
2023-03-25T17:11:40.490Z,12.70
2023-03-25T17:17:12.651Z,14.05
2023-03-25T17:22:41.092Z,14.55
2023-03-25T17:28:08.221Z,13.70
2023-03-25T17:33:34.845Z,14.73
2023-03-25T17:39:04.971Z,14.00
2023-03-25T17:44:34.450Z,14.45
2023-03-25T17:50:11.721Z,13.90
2023-03-25T17:55:35.677Z,14.85
2023-03-25T18:01:04.357Z,16.73
2023-03-25T18:06:34.235Z,17.30
2023-03-25T18:12:03.447Z,18.60
2023-03-25T18:17:26.211Z,19.92
2023-03-25T18:22:52.497Z,20.27
2023-03-25T18:28:17.444Z,20.38
2023-03-25T18:33:42.611Z,20.45
2023-03-25T18:39:15.940Z,21.53
2023-03-25T18:44:38.899Z,19.75
2023-03-25T18:50:02.158Z,23.33
2023-03-25T18:55:28.060Z,22.15
2023-03-25T19:00:57.107Z,23.90
2023-03-25T19:06:25.837Z,23.97
2023-03-25T19:17:24.013Z,25.60
2023-03-25T19:22:50.037Z,26.20
2023-03-25T19:28:20.802Z,24.63
2023-03-25T19:33:46.815Z,27.08
2023-03-25T19:39:10.816Z,24.85
2023-03-25T19:44:38.850Z,26.52
2023-03-25T19:50:10.769Z,25.13
2023-03-25T19:55:43.083Z,21.73
2023-03-25T20:01:12.393Z,21.05
2023-03-25T20:06:42.510Z,18.77
2023-03-25T20:12:11.130Z,18.38
2023-03-25T20:17:34.275Z,16.00
2023-03-25T20:23:04.774Z,17.27
2023-03-25T20:28:31.395Z,14.77
2023-03-25T20:33:56.719Z,16.27
2023-03-25T20:39:24.901Z,17.52
2023-03-25T20:44:54.212Z,17.90
2023-03-25T20:50:23.410Z,16.15
2023-03-25T20:55:50.205Z,15.25
2023-03-25T21:01:16.804Z,16.13
2023-03-25T21:06:39.333Z,15.90
2023-03-25T21:12:06.212Z,16.48
2023-03-25T21:17:29.023Z,15.70
2023-03-25T21:22:57.644Z,17.65
2023-03-25T21:28:27.904Z,15.95
2023-03-25T21:33:55.932Z,15.82
2023-03-25T21:39:25.098Z,16.80
2023-03-25T21:44:51.817Z,17.95
2023-03-25T21:50:18.413Z,17.92
2023-03-25T21:55:41.134Z,17.58
2023-03-25T22:01:10.379Z,17.10
2023-03-25T22:06:35.886Z,18.13
2023-03-25T22:12:05.265Z,18.08
2023-03-25T22:17:35.540Z,18.13
2023-03-25T22:22:58.643Z,16.85
2023-03-25T22:28:22.667Z,17.95
2023-03-25T22:33:49.123Z,17.45
2023-03-25T22:39:18.584Z,17.58
2023-03-25T22:44:44.745Z,19.48
2023-03-25T22:50:14.473Z,19.40
2023-03-25T22:55:42.974Z,18.80
2023-03-25T23:01:18.848Z,20.25
2023-03-25T23:07:00.585Z,18.55
2023-03-25T23:12:30.134Z,19.38
2023-03-25T23:17:52.242Z,20.08
2023-03-25T23:23:23.965Z,18.95
2023-03-25T23:28:53.705Z,19.55
2023-03-25T23:34:21.819Z,18.40
2023-03-25T23:39:46.514Z,17.95
2023-03-25T23:45:11.446Z,20.77
2023-03-25T23:50:35.641Z,18.15
2023-03-25T23:56:01.477Z,18.17
